sensor_id;sensor_type;location;lat;lon;timestamp;temperature;humidity
64599;SHT31;51008;51.504;11.548;2023-12-29T00:00:01;7.69;86.76
64599;SHT31;51008;51.504;11.548;2023-12-29T00:05:07;7.69;86.85
64599;SHT31;51008;51.504;11.548;2023-12-29T00:10:26;7.65;87.09
64599;SHT31;51008;51.504;11.548;2023-12-29T00:15:28;7.71;87.08
64599;SHT31;51008;51.504;11.548;2023-12-29T00:20:29;7.68;87.12
64599;SHT31;51008;51.504;11.548;2023-12-29T00:25:30;7.69;87.16
64599;SHT31;51008;51.504;11.548;2023-12-29T00:30:32;7.64;87.45
64599;SHT31;51008;51.504;11.548;2023-12-29T00:35:52;7.65;87.32
64599;SHT31;51008;51.504;11.548;2023-12-29T00:40:57;7.71;87.04
64599;SHT31;51008;51.504;11.548;2023-12-29T00:46:16;7.67;87.14
64599;SHT31;51008;51.504;11.548;2023-12-29T00:51:23;7.68;87.00
64599;SHT31;51008;51.504;11.548;2023-12-29T00:56:50;7.68;86.84
64599;SHT31;51008;51.504;11.548;2023-12-29T01:01:55;7.83;85.86
64599;SHT31;51008;51.504;11.548;2023-12-29T01:06:56;7.89;85.78
64599;SHT31;51008;51.504;11.548;2023-12-29T01:11:57;7.86;85.75
64599;SHT31;51008;51.504;11.548;2023-12-29T01:16:58;7.89;85.36
64599;SHT31;51008;51.504;11.548;2023-12-29T01:21:59;7.83;85.47
64599;SHT31;51008;51.504;11.548;2023-12-29T01:27:00;7.83;85.39
64599;SHT31;51008;51.504;11.548;2023-12-29T01:32:02;7.82;85.53
64599;SHT31;51008;51.504;11.548;2023-12-29T01:37:03;7.79;85.38
64599;SHT31;51008;51.504;11.548;2023-12-29T01:42:04;7.74;85.39
64599;SHT31;51008;51.504;11.548;2023-12-29T01:47:14;7.79;85.28
64599;SHT31;51008;51.504;11.548;2023-12-29T01:52:16;7.83;85.45
64599;SHT31;51008;51.504;11.548;2023-12-29T01:57:19;7.85;85.63
64599;SHT31;51008;51.504;11.548;2023-12-29T02:02:21;7.83;85.95
64599;SHT31;51008;51.504;11.548;2023-12-29T02:07:22;7.82;86.18
64599;SHT31;51008;51.504;11.548;2023-12-29T02:12:23;7.92;86.17
64599;SHT31;51008;51.504;11.548;2023-12-29T02:17:31;7.96;86.03
64599;SHT31;51008;51.504;11.548;2023-12-29T02:22:35;8.03;85.82
64599;SHT31;51008;51.504;11.548;2023-12-29T02:27:57;8.04;85.52
64599;SHT31;51008;51.504;11.548;2023-12-29T02:33:09;8.07;85.42
64599;SHT31;51008;51.504;11.548;2023-12-29T02:38:11;8.09;85.45
64599;SHT31;51008;51.504;11.548;2023-12-29T02:43:13;8.09;85.08
64599;SHT31;51008;51.504;11.548;2023-12-29T02:48:14;8.13;85.08
64599;SHT31;51008;51.504;11.548;2023-12-29T02:53:15;8.03;85.37
64599;SHT31;51008;51.504;11.548;2023-12-29T02:58:16;8.09;84.92
64599;SHT31;51008;51.504;11.548;2023-12-29T03:03:17;7.97;85.21
64599;SHT31;51008;51.504;11.548;2023-12-29T03:08:18;7.96;85.11
64599;SHT31;51008;51.504;11.548;2023-12-29T03:13:19;7.92;85.11
64599;SHT31;51008;51.504;11.548;2023-12-29T03:18:20;8.02;84.43
64599;SHT31;51008;51.504;11.548;2023-12-29T03:23:21;8.02;84.33
64599;SHT31;51008;51.504;11.548;2023-12-29T03:28:23;7.94;84.54
64599;SHT31;51008;51.504;11.548;2023-12-29T03:33:24;7.99;84.59
64599;SHT31;51008;51.504;11.548;2023-12-29T03:38:25;7.99;84.62
64599;SHT31;51008;51.504;11.548;2023-12-29T03:43:46;7.99;84.74
64599;SHT31;51008;51.504;11.548;2023-12-29T03:48:50;7.97;84.99
64599;SHT31;51008;51.504;11.548;2023-12-29T03:53:51;7.96;84.95
64599;SHT31;51008;51.504;11.548;2023-12-29T03:58:52;7.90;85.12
64599;SHT31;51008;51.504;11.548;2023-12-29T04:03:53;7.93;85.05
64599;SHT31;51008;51.504;11.548;2023-12-29T04:08:54;7.92;85.20
64599;SHT31;51008;51.504;11.548;2023-12-29T04:13:55;7.90;85.34
64599;SHT31;51008;51.504;11.548;2023-12-29T04:18:57;7.86;85.52
64599;SHT31;51008;51.504;11.548;2023-12-29T04:24:18;7.90;85.29
64599;SHT31;51008;51.504;11.548;2023-12-29T04:29:20;7.81;85.63
64599;SHT31;51008;51.504;11.548;2023-12-29T04:34:41;7.83;85.75
64599;SHT31;51008;51.504;11.548;2023-12-29T04:39:46;7.90;85.60
64599;SHT31;51008;51.504;11.548;2023-12-29T04:44:47;8.04;85.09
64599;SHT31;51008;51.504;11.548;2023-12-29T04:50:08;8.03;85.04
64599;SHT31;51008;51.504;11.548;2023-12-29T04:55:12;8.02;84.91
64599;SHT31;51008;51.504;11.548;2023-12-29T05:00:13;8.03;85.11
64599;SHT31;51008;51.504;11.548;2023-12-29T05:05:15;8.03;84.95
64599;SHT31;51008;51.504;11.548;2023-12-29T05:10:16;8.06;85.03
64599;SHT31;51008;51.504;11.548;2023-12-29T05:15:17;8.11;84.93
64599;SHT31;51008;51.504;11.548;2023-12-29T05:20:38;8.19;84.49
64599;SHT31;51008;51.504;11.548;2023-12-29T05:25:58;8.27;84.01
64599;SHT31;51008;51.504;11.548;2023-12-29T05:31:03;8.23;84.18
64599;SHT31;51008;51.504;11.548;2023-12-29T05:36:09;8.17;84.32
64599;SHT31;51008;51.504;11.548;2023-12-29T05:41:13;8.23;84.35
64599;SHT31;51008;51.504;11.548;2023-12-29T05:46:14;8.17;84.30
64599;SHT31;51008;51.504;11.548;2023-12-29T05:51:16;8.20;84.20
64599;SHT31;51008;51.504;11.548;2023-12-29T05:56:17;8.20;84.16
64599;SHT31;51008;51.504;11.548;2023-12-29T06:01:19;8.26;84.10
64599;SHT31;51008;51.504;11.548;2023-12-29T06:06:20;8.16;84.28
64599;SHT31;51008;51.504;11.548;2023-12-29T06:11:21;8.14;84.21
64599;SHT31;51008;51.504;11.548;2023-12-29T06:16:22;8.10;84.34
64599;SHT31;51008;51.504;11.548;2023-12-29T06:21:23;8.16;84.35
64599;SHT31;51008;51.504;11.548;2023-12-29T06:26:24;8.09;84.53
64599;SHT31;51008;51.504;11.548;2023-12-29T06:31:25;8.11;84.48
64599;SHT31;51008;51.504;11.548;2023-12-29T06:36:26;8.20;84.51
64599;SHT31;51008;51.504;11.548;2023-12-29T06:41:27;8.27;84.29
64599;SHT31;51008;51.504;11.548;2023-12-29T06:46:28;8.31;84.08
64599;SHT31;51008;51.504;11.548;2023-12-29T06:51:29;8.37;84.00
64599;SHT31;51008;51.504;11.548;2023-12-29T06:56:30;8.33;84.35
64599;SHT31;51008;51.504;11.548;2023-12-29T07:01:31;8.34;84.42
64599;SHT31;51008;51.504;11.548;2023-12-29T07:06:32;8.28;84.61
64599;SHT31;51008;51.504;11.548;2023-12-29T07:11:34;8.28;84.80
64599;SHT31;51008;51.504;11.548;2023-12-29T07:16:35;8.26;84.97
64599;SHT31;51008;51.504;11.548;2023-12-29T07:21:36;8.26;84.92
64599;SHT31;51008;51.504;11.548;2023-12-29T07:26:37;8.24;85.25
64599;SHT31;51008;51.504;11.548;2023-12-29T07:31:38;8.28;85.23
64599;SHT31;51008;51.504;11.548;2023-12-29T07:36:40;8.33;85.09
64599;SHT31;51008;51.504;11.548;2023-12-29T07:41:41;8.33;85.19
64599;SHT31;51008;51.504;11.548;2023-12-29T07:46:43;8.33;85.33
64599;SHT31;51008;51.504;11.548;2023-12-29T07:51:46;8.36;85.29
64599;SHT31;51008;51.504;11.548;2023-12-29T07:56:47;8.31;85.43
64599;SHT31;51008;51.504;11.548;2023-12-29T08:01:48;8.36;85.35
64599;SHT31;51008;51.504;11.548;2023-12-29T08:06:49;8.40;85.31
64599;SHT31;51008;51.504;11.548;2023-12-29T08:11:51;8.51;85.00
64599;SHT31;51008;51.504;11.548;2023-12-29T08:16:52;8.55;84.90
64599;SHT31;51008;51.504;11.548;2023-12-29T08:21:53;8.68;84.60
64599;SHT31;51008;51.504;11.548;2023-12-29T08:26:54;8.69;84.63
64599;SHT31;51008;51.504;11.548;2023-12-29T08:31:55;8.82;84.23
64599;SHT31;51008;51.504;11.548;2023-12-29T08:36:56;9.00;84.28
64599;SHT31;51008;51.504;11.548;2023-12-29T08:41:57;9.14;83.73
64599;SHT31;51008;51.504;11.548;2023-12-29T08:46:58;9.31;83.38
64599;SHT31;51008;51.504;11.548;2023-12-29T08:52:18;9.58;82.71
64599;SHT31;51008;51.504;11.548;2023-12-29T08:57:25;9.72;82.49
64599;SHT31;51008;51.504;11.548;2023-12-29T09:02:27;9.89;82.12
64599;SHT31;51008;51.504;11.548;2023-12-29T09:07:47;9.94;81.96
64599;SHT31;51008;51.504;11.548;2023-12-29T09:12:54;10.03;81.95
64599;SHT31;51008;51.504;11.548;2023-12-29T09:18:14;9.93;82.03
64599;SHT31;51008;51.504;11.548;2023-12-29T09:23:21;9.96;81.67
64599;SHT31;51008;51.504;11.548;2023-12-29T09:28:23;10.10;81.87
64599;SHT31;51008;51.504;11.548;2023-12-29T09:33:25;9.68;82.61
64599;SHT31;51008;51.504;11.548;2023-12-29T09:38:26;9.72;82.68
64599;SHT31;51008;51.504;11.548;2023-12-29T09:43:27;9.59;83.10
64599;SHT31;51008;51.504;11.548;2023-12-29T09:48:31;9.98;81.91
64599;SHT31;51008;51.504;11.548;2023-12-29T09:53:33;10.01;81.94
64599;SHT31;51008;51.504;11.548;2023-12-29T09:58:35;10.30;81.03
64599;SHT31;51008;51.504;11.548;2023-12-29T10:03:37;10.48;80.23
64599;SHT31;51008;51.504;11.548;2023-12-29T10:08:38;10.31;80.50
64599;SHT31;51008;51.504;11.548;2023-12-29T10:13:45;10.04;81.89
64599;SHT31;51008;51.504;11.548;2023-12-29T10:24:14;10.37;80.68
64599;SHT31;51008;51.504;11.548;2023-12-29T10:29:17;10.08;81.42
64599;SHT31;51008;51.504;11.548;2023-12-29T10:34:23;9.96;82.11
64599;SHT31;51008;51.504;11.548;2023-12-29T10:39:25;9.94;82.29
64599;SHT31;51008;51.504;11.548;2023-12-29T10:44:26;10.01;82.42
64599;SHT31;51008;51.504;11.548;2023-12-29T10:49:27;10.07;82.69
64599;SHT31;51008;51.504;11.548;2023-12-29T10:54:28;10.00;82.68
64599;SHT31;51008;51.504;11.548;2023-12-29T10:59:29;9.97;82.84
64599;SHT31;51008;51.504;11.548;2023-12-29T11:04:31;10.00;82.75
64599;SHT31;51008;51.504;11.548;2023-12-29T11:09:33;9.93;83.94
64599;SHT31;51008;51.504;11.548;2023-12-29T11:14:34;10.18;83.72
64599;SHT31;51008;51.504;11.548;2023-12-29T11:19:35;10.17;83.38
64599;SHT31;51008;51.504;11.548;2023-12-29T11:24:37;10.00;84.08
64599;SHT31;51008;51.504;11.548;2023-12-29T11:29:42;9.97;84.92
64599;SHT31;51008;51.504;11.548;2023-12-29T11:34:54;10.04;86.01
64599;SHT31;51008;51.504;11.548;2023-12-29T11:40:10;10.03;85.46
64599;SHT31;51008;51.504;11.548;2023-12-29T11:45:30;10.07;85.62
64599;SHT31;51008;51.504;11.548;2023-12-29T11:50:33;10.04;85.52
64599;SHT31;51008;51.504;11.548;2023-12-29T11:55:36;10.01;85.35
64599;SHT31;51008;51.504;11.548;2023-12-29T12:00:56;10.00;84.76
64599;SHT31;51008;51.504;11.548;2023-12-29T12:06:04;9.96;85.83
64599;SHT31;51008;51.504;11.548;2023-12-29T12:21:47;9.73;87.97
64599;SHT31;51008;51.504;11.548;2023-12-29T12:26:48;9.62;88.25
64599;SHT31;51008;51.504;11.548;2023-12-29T12:36:54;9.52;88.95
64599;SHT31;51008;51.504;11.548;2023-12-29T12:41:55;9.48;88.69
64599;SHT31;51008;51.504;11.548;2023-12-29T12:46:58;9.46;88.20
64599;SHT31;51008;51.504;11.548;2023-12-29T12:52:00;9.49;88.52
64599;SHT31;51008;51.504;11.548;2023-12-29T12:57:01;9.52;87.87
64599;SHT31;51008;51.504;11.548;2023-12-29T13:02:02;9.52;88.14
64599;SHT31;51008;51.504;11.548;2023-12-29T13:07:07;9.56;88.29
64599;SHT31;51008;51.504;11.548;2023-12-29T13:12:10;9.61;88.46
64599;SHT31;51008;51.504;11.548;2023-12-29T13:17:12;9.48;89.97
64599;SHT31;51008;51.504;11.548;2023-12-29T13:22:13;9.44;89.98
64599;SHT31;51008;51.504;11.548;2023-12-29T13:27:15;9.39;89.79
64599;SHT31;51008;51.504;11.548;2023-12-29T13:32:21;9.41;89.86
64599;SHT31;51008;51.504;11.548;2023-12-29T13:37:48;9.52;88.54
64599;SHT31;51008;51.504;11.548;2023-12-29T13:42:48;9.53;88.60
64599;SHT31;51008;51.504;11.548;2023-12-29T13:47:51;9.53;88.90
64599;SHT31;51008;51.504;11.548;2023-12-29T13:52:52;9.52;89.22
64599;SHT31;51008;51.504;11.548;2023-12-29T13:57:53;9.55;88.92
64599;SHT31;51008;51.504;11.548;2023-12-29T14:08:00;9.45;89.64
64599;SHT31;51008;51.504;11.548;2023-12-29T14:13:09;9.39;90.14
64599;SHT31;51008;51.504;11.548;2023-12-29T14:23:18;9.45;89.38
64599;SHT31;51008;51.504;11.548;2023-12-29T14:28:20;9.45;89.62
64599;SHT31;51008;51.504;11.548;2023-12-29T14:33:21;9.39;90.04
64599;SHT31;51008;51.504;11.548;2023-12-29T14:38:22;9.44;89.35
64599;SHT31;51008;51.504;11.548;2023-12-29T14:43:23;9.48;89.25
64599;SHT31;51008;51.504;11.548;2023-12-29T14:48:24;9.51;88.70
64599;SHT31;51008;51.504;11.548;2023-12-29T14:53:25;9.61;88.30
64599;SHT31;51008;51.504;11.548;2023-12-29T14:58:26;9.61;87.99
64599;SHT31;51008;51.504;11.548;2023-12-29T15:03:27;9.58;88.05
64599;SHT31;51008;51.504;11.548;2023-12-29T15:08:28;9.58;87.78
64599;SHT31;51008;51.504;11.548;2023-12-29T15:13:30;9.56;87.82
64599;SHT31;51008;51.504;11.548;2023-12-29T15:18:31;9.58;87.84
64599;SHT31;51008;51.504;11.548;2023-12-29T15:23:32;9.56;87.79
64599;SHT31;51008;51.504;11.548;2023-12-29T15:28:33;9.52;88.31
64599;SHT31;51008;51.504;11.548;2023-12-29T15:33:34;9.56;88.09
64599;SHT31;51008;51.504;11.548;2023-12-29T15:38:35;9.51;88.15
64599;SHT31;51008;51.504;11.548;2023-12-29T15:43:36;9.51;87.99
64599;SHT31;51008;51.504;11.548;2023-12-29T15:48:37;9.51;87.90
64599;SHT31;51008;51.504;11.548;2023-12-29T15:53:38;9.58;87.23
64599;SHT31;51008;51.504;11.548;2023-12-29T15:58:39;9.63;87.10
64599;SHT31;51008;51.504;11.548;2023-12-29T16:03:40;9.62;86.96
64599;SHT31;51008;51.504;11.548;2023-12-29T16:08:41;9.61;86.84
64599;SHT31;51008;51.504;11.548;2023-12-29T16:13:42;9.63;86.43
64599;SHT31;51008;51.504;11.548;2023-12-29T16:18:43;9.68;86.08
64599;SHT31;51008;51.504;11.548;2023-12-29T16:23:44;9.68;85.79
64599;SHT31;51008;51.504;11.548;2023-12-29T16:28:46;9.69;85.77
64599;SHT31;51008;51.504;11.548;2023-12-29T16:33:46;9.65;85.80
64599;SHT31;51008;51.504;11.548;2023-12-29T16:38:49;9.66;85.68
64599;SHT31;51008;51.504;11.548;2023-12-29T16:43:53;9.70;85.26
64599;SHT31;51008;51.504;11.548;2023-12-29T16:48:54;9.70;85.34
64599;SHT31;51008;51.504;11.548;2023-12-29T16:53:55;9.70;85.32
64599;SHT31;51008;51.504;11.548;2023-12-29T16:58:56;9.72;85.19
64599;SHT31;51008;51.504;11.548;2023-12-29T17:03:57;9.68;85.29
64599;SHT31;51008;51.504;11.548;2023-12-29T17:08:58;9.68;85.36
64599;SHT31;51008;51.504;11.548;2023-12-29T17:14:00;9.69;85.25
64599;SHT31;51008;51.504;11.548;2023-12-29T17:19:00;9.63;85.50
64599;SHT31;51008;51.504;11.548;2023-12-29T17:24:01;9.63;85.40
64599;SHT31;51008;51.504;11.548;2023-12-29T17:29:02;9.63;85.48
64599;SHT31;51008;51.504;11.548;2023-12-29T17:34:03;9.69;85.16
64599;SHT31;51008;51.504;11.548;2023-12-29T17:39:04;9.68;85.35
64599;SHT31;51008;51.504;11.548;2023-12-29T17:44:05;9.72;85.17
64599;SHT31;51008;51.504;11.548;2023-12-29T17:49:06;9.62;85.63
64599;SHT31;51008;51.504;11.548;2023-12-29T17:54:07;9.68;85.59
64599;SHT31;51008;51.504;11.548;2023-12-29T17:59:08;9.72;85.64
64599;SHT31;51008;51.504;11.548;2023-12-29T18:04:09;9.69;85.74
64599;SHT31;51008;51.504;11.548;2023-12-29T18:09:10;9.65;86.45
64599;SHT31;51008;51.504;11.548;2023-12-29T18:14:11;9.52;87.15
64599;SHT31;51008;51.504;11.548;2023-12-29T18:19:12;9.38;88.28
64599;SHT31;51008;51.504;11.548;2023-12-29T18:24:13;9.27;89.03
64599;SHT31;51008;51.504;11.548;2023-12-29T18:29:14;9.24;89.93
64599;SHT31;51008;51.504;11.548;2023-12-29T18:34:19;9.25;90.21
64599;SHT31;51008;51.504;11.548;2023-12-29T18:39:41;9.21;90.17
64599;SHT31;51008;51.504;11.548;2023-12-29T18:44:43;9.24;90.55
64599;SHT31;51008;51.504;11.548;2023-12-29T18:50:03;9.24;90.47
64599;SHT31;51008;51.504;11.548;2023-12-29T18:55:08;9.23;90.13
64599;SHT31;51008;51.504;11.548;2023-12-29T19:00:10;9.30;89.87
64599;SHT31;51008;51.504;11.548;2023-12-29T19:05:11;9.35;89.22
64599;SHT31;51008;51.504;11.548;2023-12-29T19:10:13;9.36;89.00
64599;SHT31;51008;51.504;11.548;2023-12-29T19:15:32;9.46;88.17
64599;SHT31;51008;51.504;11.548;2023-12-29T19:20:39;9.56;87.84
64599;SHT31;51008;51.504;11.548;2023-12-29T19:25:59;9.46;88.35
64599;SHT31;51008;51.504;11.548;2023-12-29T19:31:08;9.42;89.98
64599;SHT31;51008;51.504;11.548;2023-12-29T19:36:28;9.28;91.10
64599;SHT31;51008;51.504;11.548;2023-12-29T19:41:34;9.28;90.10
64599;SHT31;51008;51.504;11.548;2023-12-29T19:46:54;9.24;90.73
64599;SHT31;51008;51.504;11.548;2023-12-29T19:52:01;9.31;90.31
64599;SHT31;51008;51.504;11.548;2023-12-29T19:57:21;9.35;89.74
64599;SHT31;51008;51.504;11.548;2023-12-29T20:02:28;9.24;89.63
64599;SHT31;51008;51.504;11.548;2023-12-29T20:07:48;9.31;89.08
64599;SHT31;51008;51.504;11.548;2023-12-29T20:12:55;9.30;88.73
64599;SHT31;51008;51.504;11.548;2023-12-29T20:17:56;9.39;88.05
64599;SHT31;51008;51.504;11.548;2023-12-29T20:22:57;9.56;87.03
64599;SHT31;51008;51.504;11.548;2023-12-29T20:28:00;9.63;86.35
64599;SHT31;51008;51.504;11.548;2023-12-29T20:33:01;9.55;86.99
64599;SHT31;51008;51.504;11.548;2023-12-29T20:38:02;9.56;87.16
64599;SHT31;51008;51.504;11.548;2023-12-29T20:43:03;9.51;87.51
64599;SHT31;51008;51.504;11.548;2023-12-29T20:48:05;9.58;87.13
64599;SHT31;51008;51.504;11.548;2023-12-29T20:53:06;9.49;87.50
64599;SHT31;51008;51.504;11.548;2023-12-29T20:58:08;9.55;87.24
64599;SHT31;51008;51.504;11.548;2023-12-29T21:03:10;9.55;87.13
64599;SHT31;51008;51.504;11.548;2023-12-29T21:08:11;9.53;87.83
64599;SHT31;51008;51.504;11.548;2023-12-29T21:13:12;9.48;87.68
64599;SHT31;51008;51.504;11.548;2023-12-29T21:18:13;9.52;87.17
64599;SHT31;51008;51.504;11.548;2023-12-29T21:23:14;9.59;86.51
64599;SHT31;51008;51.504;11.548;2023-12-29T21:28:15;9.58;86.76
64599;SHT31;51008;51.504;11.548;2023-12-29T21:33:16;9.59;86.28
64599;SHT31;51008;51.504;11.548;2023-12-29T21:38:18;9.61;85.73
64599;SHT31;51008;51.504;11.548;2023-12-29T21:43:20;9.66;85.31
64599;SHT31;51008;51.504;11.548;2023-12-29T21:48:21;9.56;85.65
64599;SHT31;51008;51.504;11.548;2023-12-29T21:53:23;9.51;85.73
64599;SHT31;51008;51.504;11.548;2023-12-29T21:58:24;9.44;85.90
64599;SHT31;51008;51.504;11.548;2023-12-29T22:03:26;9.35;86.19
64599;SHT31;51008;51.504;11.548;2023-12-29T22:08:27;9.39;85.85
64599;SHT31;51008;51.504;11.548;2023-12-29T22:13:28;9.30;86.15
64599;SHT31;51008;51.504;11.548;2023-12-29T22:18:43;9.39;85.46
64599;SHT31;51008;51.504;11.548;2023-12-29T22:23:45;9.38;85.23
64599;SHT31;51008;51.504;11.548;2023-12-29T22:28:49;9.32;85.57
64599;SHT31;51008;51.504;11.548;2023-12-29T22:33:52;9.23;86.41
64599;SHT31;51008;51.504;11.548;2023-12-29T22:38:56;9.17;87.19
64599;SHT31;51008;51.504;11.548;2023-12-29T22:43:57;9.10;87.86
64599;SHT31;51008;51.504;11.548;2023-12-29T22:48:58;9.10;87.56
64599;SHT31;51008;51.504;11.548;2023-12-29T22:53:59;9.07;88.04
64599;SHT31;51008;51.504;11.548;2023-12-29T22:59:00;8.94;88.95
64599;SHT31;51008;51.504;11.548;2023-12-29T23:04:01;8.79;89.80
64599;SHT31;51008;51.504;11.548;2023-12-29T23:09:02;8.73;90.06
64599;SHT31;51008;51.504;11.548;2023-12-29T23:14:03;8.76;89.16
64599;SHT31;51008;51.504;11.548;2023-12-29T23:19:04;8.61;89.54
64599;SHT31;51008;51.504;11.548;2023-12-29T23:24:06;8.41;90.01
64599;SHT31;51008;51.504;11.548;2023-12-29T23:29:06;8.19;90.15
64599;SHT31;51008;51.504;11.548;2023-12-29T23:34:08;8.03;91.11
64599;SHT31;51008;51.504;11.548;2023-12-29T23:39:09;7.89;91.25
64599;SHT31;51008;51.504;11.548;2023-12-29T23:44:10;7.81;91.14
64599;SHT31;51008;51.504;11.548;2023-12-29T23:49:11;7.71;91.36
64599;SHT31;51008;51.504;11.548;2023-12-29T23:54:15;7.68;91.52
64599;SHT31;51008;51.504;11.548;2023-12-29T23:59:17;7.74;91.05
